createdAt,value
2018-04-07T00:02:10.510Z,3
2018-04-07T00:07:35.357Z,2.1
2018-04-07T00:12:59.601Z,2.1
2018-04-07T00:17:18.626Z,2.5
2018-04-07T00:22:43.077Z,2.9
2018-04-07T00:27:02.162Z,2.3
2018-04-07T18:03:35.011Z,9.5
2018-04-07T18:08:59.722Z,11.5
2018-04-07T18:13:19.777Z,9
2018-04-07T18:18:43.294Z,10.7
2018-04-07T18:23:03.791Z,9.4
2018-04-07T18:28:28.898Z,10.8
2018-04-07T18:33:53.558Z,10.7
2018-04-07T18:38:14.082Z,12.2
2018-04-07T18:43:39.170Z,10.7
2018-04-07T18:47:59.434Z,9.4
2018-04-07T18:53:23.921Z,11.4
2018-04-07T18:58:47.257Z,9.5
2018-04-07T19:03:10.568Z,8.6
2018-04-07T19:08:34.200Z,10.5
2018-04-07T19:13:58.605Z,8.7
2018-04-07T19:18:17.766Z,11.5
2018-04-07T19:23:45.290Z,11.1
2018-04-07T19:28:04.351Z,14.2
2018-04-07T19:33:29.897Z,12.4
2018-04-07T19:38:54.421Z,11
2018-04-07T19:43:16.665Z,10.5
2018-04-07T19:48:41.381Z,9.2
2018-04-07T19:52:59.743Z,9.1
2018-04-07T19:58:24.170Z,9.4
2018-04-07T20:03:52.922Z,10.3
2018-04-07T20:08:13.193Z,11
2018-04-07T20:13:37.810Z,9.6
2018-04-07T20:19:01.388Z,8.8
2018-04-07T20:23:20.455Z,9.4
2018-04-07T20:28:43.800Z,9.2
2018-04-07T20:33:03.038Z,7
2018-04-07T20:38:26.569Z,10.2
2018-04-07T20:43:50.999Z,9.3
2018-04-07T20:48:11.366Z,8.2
2018-04-07T20:53:35.478Z,8
2018-04-07T20:58:58.752Z,8
2018-04-07T21:03:17.918Z,10.8
2018-04-07T21:08:45.546Z,9
2018-04-07T21:13:04.705Z,7.3
2018-04-07T21:18:32.523Z,7
2018-04-07T21:23:56.847Z,7.4
2018-04-07T21:28:16.106Z,8.6
2018-04-07T21:33:40.443Z,8.9
2018-04-07T21:39:03.070Z,7.1
2018-04-07T21:43:22.224Z,10.4
2018-04-07T21:48:51.757Z,7.1
2018-04-07T21:53:10.889Z,10.7
2018-04-07T21:58:34.306Z,7.9
2018-04-07T22:03:58.840Z,8.5
2018-04-07T22:08:21.104Z,6.9
2018-04-07T22:13:45.538Z,6.5
2018-04-07T22:18:04.791Z,7.7
2018-04-07T22:23:29.351Z,6.8
2018-04-07T22:28:52.920Z,8.2
2018-04-07T22:33:12.188Z,6.7
2018-04-07T22:38:37.712Z,6.8
2018-04-07T22:44:02.438Z,8.3
2018-04-07T22:48:20.830Z,6.9
2018-04-07T22:53:44.852Z,7.3
2018-04-07T22:58:02.901Z,8.6
2018-04-07T23:03:27.212Z,6.7
2018-04-07T23:08:55.672Z,5.9
2018-04-07T23:13:14.731Z,6.2
2018-04-07T23:18:40.341Z,6.2
2018-04-07T23:24:06.863Z,5.4
2018-04-07T23:28:41.655Z,6.3
2018-04-07T23:33:01.041Z,5.8
2018-04-07T23:38:24.557Z,5.3
2018-04-07T23:43:48.872Z,7.8
2018-04-07T23:48:09.235Z,5.4
2018-04-07T23:53:33.859Z,6
2018-04-07T23:58:57.603Z,5.8
